sensor_id;sensor_type;location;lat;lon;timestamp;P1;durP1;ratioP1;P2;durP2;ratioP2
15258;SDS011;34462;51.368;12.364;2023-07-16T00:00:37;6.88;;;5.75;;
15258;SDS011;34462;51.368;12.364;2023-07-16T00:03:06;8.13;;;5.72;;
15258;SDS011;34462;51.368;12.364;2023-07-16T00:05:34;6.63;;;5.72;;
15258;SDS011;34462;51.368;12.364;2023-07-16T00:08:04;6.32;;;4.60;;
15258;SDS011;34462;51.368;12.364;2023-07-16T00:10:35;6.50;;;4.38;;
15258;SDS011;34462;51.368;12.364;2023-07-16T00:13:04;5.05;;;4.55;;
15258;SDS011;34462;51.368;12.364;2023-07-16T00:15:33;4.75;;;3.85;;
15258;SDS011;34462;51.368;12.364;2023-07-16T00:18:01;7.28;;;4.57;;
15258;SDS011;34462;51.368;12.364;2023-07-16T00:20:32;4.05;;;3.65;;
15258;SDS011;34462;51.368;12.364;2023-07-16T00:23:00;6.32;;;4.13;;
15258;SDS011;34462;51.368;12.364;2023-07-16T00:25:29;4.50;;;3.53;;
15258;SDS011;34462;51.368;12.364;2023-07-16T00:27:59;6.93;;;3.70;;
15258;SDS011;34462;51.368;12.364;2023-07-16T00:30:27;4.47;;;3.55;;
15258;SDS011;34462;51.368;12.364;2023-07-16T00:32:56;4.00;;;3.60;;
15258;SDS011;34462;51.368;12.364;2023-07-16T00:35:24;8.02;;;4.13;;
15258;SDS011;34462;51.368;12.364;2023-07-16T00:37:53;7.07;;;4.18;;
15258;SDS011;34462;51.368;12.364;2023-07-16T00:40:21;6.07;;;3.97;;
15258;SDS011;34462;51.368;12.364;2023-07-16T00:42:50;4.38;;;3.63;;
15258;SDS011;34462;51.368;12.364;2023-07-16T00:45:20;6.07;;;4.25;;
15258;SDS011;34462;51.368;12.364;2023-07-16T00:47:48;5.47;;;3.85;;
15258;SDS011;34462;51.368;12.364;2023-07-16T00:50:17;5.82;;;3.97;;
15258;SDS011;34462;51.368;12.364;2023-07-16T00:52:46;6.50;;;3.85;;
15258;SDS011;34462;51.368;12.364;2023-07-16T00:55:15;4.78;;;4.07;;
15258;SDS011;34462;51.368;12.364;2023-07-16T00:57:44;4.57;;;3.88;;
15258;SDS011;34462;51.368;12.364;2023-07-16T01:00:14;5.72;;;4.45;;
15258;SDS011;34462;51.368;12.364;2023-07-16T01:02:44;5.03;;;4.20;;
15258;SDS011;34462;51.368;12.364;2023-07-16T01:05:13;6.50;;;3.80;;
15258;SDS011;34462;51.368;12.364;2023-07-16T01:07:42;6.03;;;4.00;;
15258;SDS011;34462;51.368;12.364;2023-07-16T01:10:17;5.40;;;4.20;;
15258;SDS011;34462;51.368;12.364;2023-07-16T01:12:47;4.80;;;3.70;;
15258;SDS011;34462;51.368;12.364;2023-07-16T01:15:16;4.47;;;3.90;;
15258;SDS011;34462;51.368;12.364;2023-07-16T01:17:46;4.05;;;3.55;;
15258;SDS011;34462;51.368;12.364;2023-07-16T01:20:15;4.30;;;3.90;;
15258;SDS011;34462;51.368;12.364;2023-07-16T01:22:50;5.35;;;4.10;;
15258;SDS011;34462;51.368;12.364;2023-07-16T01:25:43;4.93;;;3.75;;
15258;SDS011;34462;51.368;12.364;2023-07-16T01:31:44;4.63;;;4.10;;
15258;SDS011;34462;51.368;12.364;2023-07-16T01:34:17;7.22;;;4.43;;
15258;SDS011;34462;51.368;12.364;2023-07-16T01:36:46;6.22;;;4.32;;
15258;SDS011;34462;51.368;12.364;2023-07-16T01:39:16;5.22;;;3.88;;
15258;SDS011;34462;51.368;12.364;2023-07-16T01:41:45;4.50;;;3.78;;
15258;SDS011;34462;51.368;12.364;2023-07-16T01:44:15;5.03;;;4.03;;
15258;SDS011;34462;51.368;12.364;2023-07-16T01:46:43;5.22;;;3.90;;
15258;SDS011;34462;51.368;12.364;2023-07-16T01:49:14;6.70;;;4.30;;
15258;SDS011;34462;51.368;12.364;2023-07-16T01:51:42;3.90;;;3.60;;
15258;SDS011;34462;51.368;12.364;2023-07-16T01:54:10;6.10;;;4.05;;
15258;SDS011;34462;51.368;12.364;2023-07-16T01:56:39;5.47;;;3.92;;
15258;SDS011;34462;51.368;12.364;2023-07-16T01:59:07;5.28;;;3.65;;
15258;SDS011;34462;51.368;12.364;2023-07-16T02:01:37;5.45;;;4.30;;
15258;SDS011;34462;51.368;12.364;2023-07-16T02:04:06;4.18;;;3.78;;
15258;SDS011;34462;51.368;12.364;2023-07-16T02:06:34;4.03;;;3.63;;
15258;SDS011;34462;51.368;12.364;2023-07-16T02:09:03;4.45;;;3.72;;
15258;SDS011;34462;51.368;12.364;2023-07-16T02:11:31;4.88;;;3.38;;
15258;SDS011;34462;51.368;12.364;2023-07-16T02:14:00;4.25;;;3.42;;
15258;SDS011;34462;51.368;12.364;2023-07-16T02:16:28;5.30;;;3.90;;
15258;SDS011;34462;51.368;12.364;2023-07-16T02:18:58;4.50;;;3.45;;
15258;SDS011;34462;51.368;12.364;2023-07-16T02:21:27;5.00;;;3.53;;
15258;SDS011;34462;51.368;12.364;2023-07-16T02:23:55;5.50;;;3.35;;
15258;SDS011;34462;51.368;12.364;2023-07-16T02:26:24;4.03;;;3.58;;
15258;SDS011;34462;51.368;12.364;2023-07-16T02:28:52;4.45;;;4.03;;
15258;SDS011;34462;51.368;12.364;2023-07-16T02:31:21;4.45;;;4.05;;
15258;SDS011;34462;51.368;12.364;2023-07-16T02:33:49;6.50;;;4.38;;
15258;SDS011;34462;51.368;12.364;2023-07-16T02:36:19;4.38;;;3.97;;
15258;SDS011;34462;51.368;12.364;2023-07-16T02:38:48;4.93;;;4.35;;
15258;SDS011;34462;51.368;12.364;2023-07-16T02:41:16;5.03;;;4.47;;
15258;SDS011;34462;51.368;12.364;2023-07-16T02:43:45;5.00;;;4.55;;
15258;SDS011;34462;51.368;12.364;2023-07-16T02:46:13;4.90;;;4.47;;
15258;SDS011;34462;51.368;12.364;2023-07-16T02:48:42;6.10;;;4.70;;
15258;SDS011;34462;51.368;12.364;2023-07-16T02:51:11;6.47;;;4.65;;
15258;SDS011;34462;51.368;12.364;2023-07-16T02:53:40;5.22;;;4.72;;
15258;SDS011;34462;51.368;12.364;2023-07-16T02:56:09;4.95;;;4.30;;
15258;SDS011;34462;51.368;12.364;2023-07-16T02:58:37;5.63;;;4.60;;
15258;SDS011;34462;51.368;12.364;2023-07-16T03:01:06;4.85;;;4.30;;
15258;SDS011;34462;51.368;12.364;2023-07-16T03:03:35;5.10;;;4.60;;
15258;SDS011;34462;51.368;12.364;2023-07-16T03:06:03;5.18;;;4.05;;
15258;SDS011;34462;51.368;12.364;2023-07-16T03:08:32;5.45;;;4.20;;
15258;SDS011;34462;51.368;12.364;2023-07-16T03:11:02;5.55;;;4.00;;
15258;SDS011;34462;51.368;12.364;2023-07-16T03:13:30;4.38;;;3.97;;
15258;SDS011;34462;51.368;12.364;2023-07-16T03:15:59;4.90;;;4.13;;
15258;SDS011;34462;51.368;12.364;2023-07-16T03:18:28;4.38;;;3.83;;
15258;SDS011;34462;51.368;12.364;2023-07-16T03:20:57;4.75;;;3.78;;
15258;SDS011;34462;51.368;12.364;2023-07-16T03:23:26;4.32;;;3.92;;
15258;SDS011;34462;51.368;12.364;2023-07-16T03:25:54;4.47;;;4.07;;
15258;SDS011;34462;51.368;12.364;2023-07-16T03:28:24;5.15;;;3.88;;
15258;SDS011;34462;51.368;12.364;2023-07-16T03:30:52;5.75;;;4.53;;
15258;SDS011;34462;51.368;12.364;2023-07-16T03:33:21;4.07;;;3.65;;
15258;SDS011;34462;51.368;12.364;2023-07-16T03:35:50;3.90;;;3.53;;
15258;SDS011;34462;51.368;12.364;2023-07-16T03:38:18;8.82;;;3.88;;
15258;SDS011;34462;51.368;12.364;2023-07-16T03:40:47;4.15;;;3.85;;
15258;SDS011;34462;51.368;12.364;2023-07-16T03:43:17;4.38;;;3.97;;
15258;SDS011;34462;51.368;12.364;2023-07-16T03:45:47;4.38;;;3.97;;
15258;SDS011;34462;51.368;12.364;2023-07-16T03:48:16;5.65;;;4.45;;
15258;SDS011;34462;51.368;12.364;2023-07-16T03:50:46;6.18;;;4.13;;
15258;SDS011;34462;51.368;12.364;2023-07-16T03:53:15;5.82;;;3.80;;
15258;SDS011;34462;51.368;12.364;2023-07-16T03:55:43;5.10;;;3.90;;
15258;SDS011;34462;51.368;12.364;2023-07-16T03:58:12;4.35;;;4.00;;
15258;SDS011;34462;51.368;12.364;2023-07-16T04:00:40;4.68;;;4.10;;
15258;SDS011;34462;51.368;12.364;2023-07-16T04:03:11;4.57;;;3.80;;
15258;SDS011;34462;51.368;12.364;2023-07-16T04:05:40;4.65;;;4.13;;
15258;SDS011;34462;51.368;12.364;2023-07-16T04:08:08;4.25;;;3.85;;
15258;SDS011;34462;51.368;12.364;2023-07-16T04:10:37;5.88;;;4.25;;
15258;SDS011;34462;51.368;12.364;2023-07-16T04:13:06;4.60;;;3.50;;
15258;SDS011;34462;51.368;12.364;2023-07-16T04:15:34;4.95;;;3.35;;
15258;SDS011;34462;51.368;12.364;2023-07-16T04:18:03;4.32;;;3.80;;
15258;SDS011;34462;51.368;12.364;2023-07-16T04:20:33;5.30;;;3.85;;
15258;SDS011;34462;51.368;12.364;2023-07-16T04:23:01;3.95;;;3.55;;
15258;SDS011;34462;51.368;12.364;2023-07-16T04:25:30;4.57;;;3.95;;
15258;SDS011;34462;51.368;12.364;2023-07-16T04:27:59;4.05;;;3.47;;
15258;SDS011;34462;51.368;12.364;2023-07-16T04:30:30;4.90;;;3.95;;
15258;SDS011;34462;51.368;12.364;2023-07-16T04:32:58;3.78;;;3.47;;
15258;SDS011;34462;51.368;12.364;2023-07-16T04:35:27;3.70;;;3.40;;
15258;SDS011;34462;51.368;12.364;2023-07-16T04:37:57;4.40;;;3.60;;
15258;SDS011;34462;51.368;12.364;2023-07-16T04:40:25;4.72;;;3.40;;
15258;SDS011;34462;51.368;12.364;2023-07-16T04:42:54;3.38;;;3.08;;
15258;SDS011;34462;51.368;12.364;2023-07-16T04:45:23;5.53;;;3.47;;
15258;SDS011;34462;51.368;12.364;2023-07-16T04:47:51;5.72;;;3.60;;
15258;SDS011;34462;51.368;12.364;2023-07-16T04:50:20;4.40;;;3.00;;
15258;SDS011;34462;51.368;12.364;2023-07-16T04:52:48;3.53;;;2.95;;
15258;SDS011;34462;51.368;12.364;2023-07-16T04:55:18;4.50;;;3.05;;
15258;SDS011;34462;51.368;12.364;2023-07-16T04:57:47;7.97;;;3.20;;
15258;SDS011;34462;51.368;12.364;2023-07-16T05:00:15;4.55;;;3.00;;
15258;SDS011;34462;51.368;12.364;2023-07-16T05:02:44;3.17;;;2.72;;
15258;SDS011;34462;51.368;12.364;2023-07-16T05:05:12;5.18;;;2.75;;
15258;SDS011;34462;51.368;12.364;2023-07-16T05:07:41;4.82;;;3.13;;
15258;SDS011;34462;51.368;12.364;2023-07-16T05:10:09;4.70;;;2.95;;
15258;SDS011;34462;51.368;12.364;2023-07-16T05:12:40;3.28;;;2.63;;
15258;SDS011;34462;51.368;12.364;2023-07-16T05:15:09;3.95;;;2.72;;
15258;SDS011;34462;51.368;12.364;2023-07-16T05:17:37;3.58;;;2.78;;
15258;SDS011;34462;51.368;12.364;2023-07-16T05:20:06;3.08;;;2.60;;
15258;SDS011;34462;51.368;12.364;2023-07-16T05:22:36;4.20;;;2.67;;
15258;SDS011;34462;51.368;12.364;2023-07-16T05:25:05;5.43;;;2.50;;
15258;SDS011;34462;51.368;12.364;2023-07-16T05:27:34;4.05;;;2.63;;
15258;SDS011;34462;51.368;12.364;2023-07-16T05:30:04;2.97;;;2.40;;
15258;SDS011;34462;51.368;12.364;2023-07-16T05:32:34;4.30;;;2.67;;
15258;SDS011;34462;51.368;12.364;2023-07-16T05:35:03;5.05;;;2.58;;
15258;SDS011;34462;51.368;12.364;2023-07-16T05:37:33;3.25;;;2.42;;
15258;SDS011;34462;51.368;12.364;2023-07-16T05:40:01;2.33;;;2.10;;
15258;SDS011;34462;51.368;12.364;2023-07-16T05:42:30;4.90;;;2.20;;
15258;SDS011;34462;51.368;12.364;2023-07-16T05:44:59;2.33;;;2.13;;
15258;SDS011;34462;51.368;12.364;2023-07-16T05:47:29;4.55;;;2.28;;
15258;SDS011;34462;51.368;12.364;2023-07-16T05:49:57;2.35;;;2.15;;
15258;SDS011;34462;51.368;12.364;2023-07-16T05:52:26;3.83;;;2.17;;
15258;SDS011;34462;51.368;12.364;2023-07-16T05:54:54;2.60;;;2.08;;
15258;SDS011;34462;51.368;12.364;2023-07-16T05:57:23;3.63;;;2.30;;
15258;SDS011;34462;51.368;12.364;2023-07-16T05:59:51;2.10;;;1.92;;
15258;SDS011;34462;51.368;12.364;2023-07-16T06:02:22;1.92;;;1.83;;
15258;SDS011;34462;51.368;12.364;2023-07-16T06:04:52;2.55;;;2.20;;
15258;SDS011;34462;51.368;12.364;2023-07-16T06:07:20;2.25;;;2.05;;
15258;SDS011;34462;51.368;12.364;2023-07-16T06:09:49;3.55;;;2.05;;
15258;SDS011;34462;51.368;12.364;2023-07-16T06:12:17;3.47;;;1.90;;
15258;SDS011;34462;51.368;12.364;2023-07-16T06:14:46;3.33;;;2.10;;
15258;SDS011;34462;51.368;12.364;2023-07-16T06:17:15;3.53;;;1.95;;
15258;SDS011;34462;51.368;12.364;2023-07-16T06:19:43;2.38;;;2.17;;
15258;SDS011;34462;51.368;12.364;2023-07-16T06:22:13;2.58;;;1.80;;
15258;SDS011;34462;51.368;12.364;2023-07-16T06:24:41;3.15;;;1.90;;
15258;SDS011;34462;51.368;12.364;2023-07-16T06:27:10;2.60;;;1.98;;
15258;SDS011;34462;51.368;12.364;2023-07-16T06:29:38;2.58;;;1.92;;
15258;SDS011;34462;51.368;12.364;2023-07-16T06:32:07;5.95;;;2.25;;
15258;SDS011;34462;51.368;12.364;2023-07-16T06:34:36;3.05;;;2.17;;
15258;SDS011;34462;51.368;12.364;2023-07-16T06:37:05;2.50;;;2.20;;
15258;SDS011;34462;51.368;12.364;2023-07-16T06:39:35;2.67;;;1.90;;
15258;SDS011;34462;51.368;12.364;2023-07-16T06:42:04;3.35;;;1.80;;
15258;SDS011;34462;51.368;12.364;2023-07-16T06:44:33;3.15;;;2.00;;
15258;SDS011;34462;51.368;12.364;2023-07-16T06:47:01;2.72;;;1.90;;
15258;SDS011;34462;51.368;12.364;2023-07-16T06:49:30;3.88;;;2.30;;
15258;SDS011;34462;51.368;12.364;2023-07-16T06:52:00;5.18;;;1.98;;
15258;SDS011;34462;51.368;12.364;2023-07-16T06:54:28;4.18;;;2.30;;
15258;SDS011;34462;51.368;12.364;2023-07-16T06:56:58;3.38;;;2.00;;
15258;SDS011;34462;51.368;12.364;2023-07-16T06:59:27;3.88;;;1.63;;
15258;SDS011;34462;51.368;12.364;2023-07-16T07:01:55;4.07;;;1.95;;
15258;SDS011;34462;51.368;12.364;2023-07-16T07:04:24;4.85;;;2.47;;
15258;SDS011;34462;51.368;12.364;2023-07-16T07:06:52;2.45;;;1.90;;
15258;SDS011;34462;51.368;12.364;2023-07-16T07:09:21;4.32;;;2.08;;
15258;SDS011;34462;51.368;12.364;2023-07-16T07:11:49;2.40;;;2.00;;
15258;SDS011;34462;51.368;12.364;2023-07-16T07:14:19;2.58;;;2.00;;
15258;SDS011;34462;51.368;12.364;2023-07-16T07:16:48;4.43;;;1.95;;
15258;SDS011;34462;51.368;12.364;2023-07-16T07:19:16;3.38;;;2.13;;
15258;SDS011;34462;51.368;12.364;2023-07-16T07:21:45;3.78;;;1.90;;
15258;SDS011;34462;51.368;12.364;2023-07-16T07:24:13;4.25;;;1.95;;
15258;SDS011;34462;51.368;12.364;2023-07-16T07:26:42;2.97;;;1.80;;
15258;SDS011;34462;51.368;12.364;2023-07-16T07:29:10;2.55;;;1.70;;
15258;SDS011;34462;51.368;12.364;2023-07-16T07:31:41;2.60;;;1.90;;
15258;SDS011;34462;51.368;12.364;2023-07-16T07:34:09;3.38;;;1.70;;
15258;SDS011;34462;51.368;12.364;2023-07-16T07:36:38;3.00;;;1.80;;
15258;SDS011;34462;51.368;12.364;2023-07-16T07:39:07;2.83;;;1.83;;
15258;SDS011;34462;51.368;12.364;2023-07-16T07:41:35;2.85;;;1.83;;
15258;SDS011;34462;51.368;12.364;2023-07-16T07:44:04;2.40;;;1.60;;
15258;SDS011;34462;51.368;12.364;2023-07-16T07:46:33;3.28;;;1.50;;
15258;SDS011;34462;51.368;12.364;2023-07-16T07:49:02;3.15;;;1.73;;
15258;SDS011;34462;51.368;12.364;2023-07-16T07:51:31;4.07;;;2.25;;
15258;SDS011;34462;51.368;12.364;2023-07-16T07:54:00;3.65;;;2.10;;
15258;SDS011;34462;51.368;12.364;2023-07-16T07:56:28;3.60;;;2.10;;
15258;SDS011;34462;51.368;12.364;2023-07-16T07:58:57;3.60;;;1.80;;
15258;SDS011;34462;51.368;12.364;2023-07-16T08:01:26;3.47;;;1.88;;
15258;SDS011;34462;51.368;12.364;2023-07-16T08:03:55;2.63;;;1.65;;
15258;SDS011;34462;51.368;12.364;2023-07-16T08:06:26;3.13;;;1.83;;
15258;SDS011;34462;51.368;12.364;2023-07-16T08:08:54;3.55;;;1.92;;
15258;SDS011;34462;51.368;12.364;2023-07-16T08:11:23;2.47;;;1.58;;
15258;SDS011;34462;51.368;12.364;2023-07-16T08:13:51;3.53;;;1.83;;
15258;SDS011;34462;51.368;12.364;2023-07-16T08:16:20;4.32;;;2.25;;
15258;SDS011;34462;51.368;12.364;2023-07-16T08:18:48;3.50;;;1.80;;
15258;SDS011;34462;51.368;12.364;2023-07-16T08:21:17;2.95;;;1.40;;
15258;SDS011;34462;51.368;12.364;2023-07-16T08:23:48;4.50;;;1.92;;
15258;SDS011;34462;51.368;12.364;2023-07-16T08:26:17;6.32;;;1.70;;
15258;SDS011;34462;51.368;12.364;2023-07-16T08:28:45;3.22;;;1.77;;
15258;SDS011;34462;51.368;12.364;2023-07-16T08:31:14;3.80;;;1.80;;
15258;SDS011;34462;51.368;12.364;2023-07-16T08:33:43;4.95;;;1.70;;
15258;SDS011;34462;51.368;12.364;2023-07-16T08:36:11;3.78;;;1.52;;
15258;SDS011;34462;51.368;12.364;2023-07-16T08:38:40;4.63;;;1.77;;
15258;SDS011;34462;51.368;12.364;2023-07-16T08:41:10;4.15;;;1.80;;
15258;SDS011;34462;51.368;12.364;2023-07-16T08:43:38;2.92;;;1.70;;
15258;SDS011;34462;51.368;12.364;2023-07-16T08:46:08;4.45;;;1.80;;
15258;SDS011;34462;51.368;12.364;2023-07-16T08:48:40;2.47;;;1.45;;
15258;SDS011;34462;51.368;12.364;2023-07-16T08:51:09;2.58;;;1.40;;
15258;SDS011;34462;51.368;12.364;2023-07-16T08:53:41;2.67;;;1.50;;
15258;SDS011;34462;51.368;12.364;2023-07-16T08:56:11;2.42;;;1.75;;
15258;SDS011;34462;51.368;12.364;2023-07-16T08:58:40;4.50;;;1.70;;
15258;SDS011;34462;51.368;12.364;2023-07-16T09:01:10;3.25;;;1.63;;
15258;SDS011;34462;51.368;12.364;2023-07-16T09:03:39;3.17;;;1.70;;
15258;SDS011;34462;51.368;12.364;2023-07-16T09:06:08;1.92;;;1.45;;
15258;SDS011;34462;51.368;12.364;2023-07-16T09:08:37;3.85;;;1.33;;
15258;SDS011;34462;51.368;12.364;2023-07-16T09:11:05;3.03;;;1.60;;
15258;SDS011;34462;51.368;12.364;2023-07-16T09:13:43;3.05;;;1.80;;
15258;SDS011;34462;51.368;12.364;2023-07-16T09:16:11;3.58;;;1.50;;
15258;SDS011;34462;51.368;12.364;2023-07-16T09:18:43;2.30;;;1.50;;
15258;SDS011;34462;51.368;12.364;2023-07-16T09:21:11;4.75;;;1.52;;
15258;SDS011;34462;51.368;12.364;2023-07-16T09:23:41;3.17;;;1.55;;
15258;SDS011;34462;51.368;12.364;2023-07-16T09:26:09;3.70;;;1.63;;
15258;SDS011;34462;51.368;12.364;2023-07-16T09:28:39;2.05;;;1.48;;
15258;SDS011;34462;51.368;12.364;2023-07-16T09:31:08;2.55;;;1.42;;
15258;SDS011;34462;51.368;12.364;2023-07-16T09:33:38;3.03;;;1.77;;
15258;SDS011;34462;51.368;12.364;2023-07-16T09:36:06;3.03;;;1.48;;
15258;SDS011;34462;51.368;12.364;2023-07-16T09:38:35;3.35;;;1.55;;
15258;SDS011;34462;51.368;12.364;2023-07-16T09:41:04;3.40;;;1.60;;
15258;SDS011;34462;51.368;12.364;2023-07-16T09:43:34;5.07;;;1.85;;
15258;SDS011;34462;51.368;12.364;2023-07-16T09:46:05;3.00;;;1.67;;
15258;SDS011;34462;51.368;12.364;2023-07-16T09:48:34;3.80;;;1.60;;
15258;SDS011;34462;51.368;12.364;2023-07-16T09:51:03;2.50;;;1.25;;
15258;SDS011;34462;51.368;12.364;2023-07-16T09:53:35;1.63;;;1.50;;
15258;SDS011;34462;51.368;12.364;2023-07-16T09:56:06;2.60;;;1.50;;
15258;SDS011;34462;51.368;12.364;2023-07-16T09:58:37;2.50;;;1.60;;
15258;SDS011;34462;51.368;12.364;2023-07-16T10:01:08;3.45;;;1.90;;
15258;SDS011;34462;51.368;12.364;2023-07-16T10:03:47;3.25;;;1.83;;
15258;SDS011;34462;51.368;12.364;2023-07-16T10:06:16;3.75;;;1.75;;
15258;SDS011;34462;51.368;12.364;2023-07-16T10:08:48;2.45;;;1.55;;
15258;SDS011;34462;51.368;12.364;2023-07-16T10:11:17;2.65;;;1.75;;
15258;SDS011;34462;51.368;12.364;2023-07-16T10:13:49;3.03;;;1.50;;
15258;SDS011;34462;51.368;12.364;2023-07-16T10:16:22;3.00;;;1.67;;
15258;SDS011;34462;51.368;12.364;2023-07-16T10:18:53;3.65;;;1.63;;
15258;SDS011;34462;51.368;12.364;2023-07-16T10:21:27;3.17;;;1.80;;
15258;SDS011;34462;51.368;12.364;2023-07-16T10:23:58;3.10;;;1.80;;
15258;SDS011;34462;51.368;12.364;2023-07-16T10:26:27;4.22;;;1.90;;
15258;SDS011;34462;51.368;12.364;2023-07-16T10:28:56;1.95;;;1.58;;
15258;SDS011;34462;51.368;12.364;2023-07-16T10:31:26;2.90;;;1.60;;
15258;SDS011;34462;51.368;12.364;2023-07-16T10:33:58;2.30;;;1.63;;
15258;SDS011;34462;51.368;12.364;2023-07-16T10:36:28;3.72;;;1.70;;
15258;SDS011;34462;51.368;12.364;2023-07-16T10:39:01;4.15;;;1.63;;
15258;SDS011;34462;51.368;12.364;2023-07-16T10:41:31;4.63;;;1.90;;
15258;SDS011;34462;51.368;12.364;2023-07-16T10:44:00;2.13;;;1.60;;
15258;SDS011;34462;51.368;12.364;2023-07-16T10:46:30;2.17;;;1.60;;
15258;SDS011;34462;51.368;12.364;2023-07-16T10:49:00;3.47;;;1.55;;
15258;SDS011;34462;51.368;12.364;2023-07-16T10:51:28;2.42;;;1.90;;
15258;SDS011;34462;51.368;12.364;2023-07-16T10:53:57;2.35;;;1.80;;
15258;SDS011;34462;51.368;12.364;2023-07-16T10:56:26;2.95;;;1.70;;
15258;SDS011;34462;51.368;12.364;2023-07-16T10:58:54;1.85;;;1.67;;
15258;SDS011;34462;51.368;12.364;2023-07-16T11:01:23;3.65;;;1.60;;
15258;SDS011;34462;51.368;12.364;2023-07-16T11:03:53;2.38;;;1.67;;
15258;SDS011;34462;51.368;12.364;2023-07-16T11:06:27;1.75;;;1.55;;
15258;SDS011;34462;51.368;12.364;2023-07-16T11:09:05;2.60;;;1.85;;
15258;SDS011;34462;51.368;12.364;2023-07-16T11:11:34;3.05;;;1.58;;
15258;SDS011;34462;51.368;12.364;2023-07-16T11:14:03;4.53;;;1.70;;
15258;SDS011;34462;51.368;12.364;2023-07-16T11:16:35;3.28;;;1.65;;
15258;SDS011;34462;51.368;12.364;2023-07-16T11:19:06;3.15;;;1.90;;
15258;SDS011;34462;51.368;12.364;2023-07-16T11:21:34;2.45;;;1.73;;
15258;SDS011;34462;51.368;12.364;2023-07-16T11:24:07;3.85;;;1.90;;
15258;SDS011;34462;51.368;12.364;2023-07-16T11:26:36;3.17;;;1.80;;
15258;SDS011;34462;51.368;12.364;2023-07-16T11:29:12;3.30;;;1.70;;
15258;SDS011;34462;51.368;12.364;2023-07-16T11:31:41;2.78;;;2.05;;
15258;SDS011;34462;51.368;12.364;2023-07-16T11:34:13;2.15;;;1.70;;
15258;SDS011;34462;51.368;12.364;2023-07-16T11:36:42;3.10;;;1.83;;
15258;SDS011;34462;51.368;12.364;2023-07-16T11:39:10;2.75;;;1.90;;
15258;SDS011;34462;51.368;12.364;2023-07-16T11:41:39;3.90;;;1.90;;
15258;SDS011;34462;51.368;12.364;2023-07-16T11:44:08;3.97;;;1.90;;
15258;SDS011;34462;51.368;12.364;2023-07-16T11:46:39;3.22;;;1.88;;
15258;SDS011;34462;51.368;12.364;2023-07-16T11:49:08;2.15;;;1.77;;
15258;SDS011;34462;51.368;12.364;2023-07-16T11:51:38;3.08;;;1.85;;
15258;SDS011;34462;51.368;12.364;2023-07-16T11:54:06;3.03;;;2.22;;
15258;SDS011;34462;51.368;12.364;2023-07-16T11:56:35;3.35;;;1.95;;
15258;SDS011;34462;51.368;12.364;2023-07-16T11:59:03;4.22;;;2.17;;
15258;SDS011;34462;51.368;12.364;2023-07-16T12:01:32;2.55;;;1.80;;
15258;SDS011;34462;51.368;12.364;2023-07-16T12:04:01;3.78;;;1.67;;
15258;SDS011;34462;51.368;12.364;2023-07-16T12:06:29;3.35;;;2.03;;
15258;SDS011;34462;51.368;12.364;2023-07-16T12:08:59;3.03;;;2.03;;
15258;SDS011;34462;51.368;12.364;2023-07-16T12:11:28;3.08;;;1.95;;
15258;SDS011;34462;51.368;12.364;2023-07-16T12:13:56;1.98;;;1.77;;
15258;SDS011;34462;51.368;12.364;2023-07-16T12:16:25;2.92;;;1.73;;
15258;SDS011;34462;51.368;12.364;2023-07-16T12:18:53;4.20;;;2.00;;
15258;SDS011;34462;51.368;12.364;2023-07-16T12:21:22;3.10;;;2.08;;
15258;SDS011;34462;51.368;12.364;2023-07-16T12:23:50;5.07;;;2.10;;
15258;SDS011;34462;51.368;12.364;2023-07-16T12:26:20;3.38;;;1.85;;
15258;SDS011;34462;51.368;12.364;2023-07-16T12:28:48;3.15;;;1.98;;
15258;SDS011;34462;51.368;12.364;2023-07-16T12:31:17;2.95;;;1.80;;
15258;SDS011;34462;51.368;12.364;2023-07-16T12:33:46;3.38;;;2.13;;
15258;SDS011;34462;51.368;12.364;2023-07-16T12:36:18;3.40;;;2.17;;
15258;SDS011;34462;51.368;12.364;2023-07-16T12:38:46;4.30;;;2.10;;
15258;SDS011;34462;51.368;12.364;2023-07-16T12:41:15;3.10;;;2.40;;
15258;SDS011;34462;51.368;12.364;2023-07-16T12:43:45;2.40;;;2.05;;
15258;SDS011;34462;51.368;12.364;2023-07-16T12:46:14;3.90;;;1.98;;
15258;SDS011;34462;51.368;12.364;2023-07-16T12:48:43;3.72;;;2.10;;
15258;SDS011;34462;51.368;12.364;2023-07-16T12:51:11;5.38;;;1.92;;
15258;SDS011;34462;51.368;12.364;2023-07-16T12:53:41;3.53;;;2.15;;
15258;SDS011;34462;51.368;12.364;2023-07-16T12:56:10;3.78;;;1.77;;
15258;SDS011;34462;51.368;12.364;2023-07-16T12:58:39;3.67;;;2.00;;
15258;SDS011;34462;51.368;12.364;2023-07-16T13:01:09;4.97;;;2.00;;
15258;SDS011;34462;51.368;12.364;2023-07-16T13:03:37;2.63;;;2.00;;
15258;SDS011;34462;51.368;12.364;2023-07-16T13:06:06;3.47;;;2.40;;
15258;SDS011;34462;51.368;12.364;2023-07-16T13:08:34;2.97;;;1.98;;
15258;SDS011;34462;51.368;12.364;2023-07-16T13:11:03;3.33;;;2.28;;
15258;SDS011;34462;51.368;12.364;2023-07-16T13:13:31;3.22;;;2.35;;
15258;SDS011;34462;51.368;12.364;2023-07-16T13:16:01;6.65;;;2.53;;
15258;SDS011;34462;51.368;12.364;2023-07-16T13:18:31;4.75;;;2.13;;
15258;SDS011;34462;51.368;12.364;2023-07-16T13:21:00;2.72;;;1.88;;
15258;SDS011;34462;51.368;12.364;2023-07-16T13:23:29;5.18;;;2.67;;
15258;SDS011;34462;51.368;12.364;2023-07-16T13:25:58;4.63;;;2.55;;
15258;SDS011;34462;51.368;12.364;2023-07-16T13:28:26;3.63;;;2.22;;
15258;SDS011;34462;51.368;12.364;2023-07-16T13:30:55;3.03;;;2.10;;
15258;SDS011;34462;51.368;12.364;2023-07-16T13:33:23;4.03;;;2.40;;
15258;SDS011;34462;51.368;12.364;2023-07-16T13:35:53;3.15;;;2.35;;
15258;SDS011;34462;51.368;12.364;2023-07-16T13:38:23;5.05;;;2.08;;
15258;SDS011;34462;51.368;12.364;2023-07-16T13:40:51;2.80;;;2.25;;
15258;SDS011;34462;51.368;12.364;2023-07-16T13:43:20;3.03;;;2.45;;
15258;SDS011;34462;51.368;12.364;2023-07-16T13:45:48;4.32;;;2.67;;
15258;SDS011;34462;51.368;12.364;2023-07-16T13:48:17;2.75;;;2.10;;
15258;SDS011;34462;51.368;12.364;2023-07-16T13:50:45;5.45;;;2.40;;
15258;SDS011;34462;51.368;12.364;2023-07-16T13:53:15;3.00;;;2.30;;
15258;SDS011;34462;51.368;12.364;2023-07-16T13:55:44;4.32;;;2.40;;
15258;SDS011;34462;51.368;12.364;2023-07-16T13:58:12;3.17;;;2.28;;
15258;SDS011;34462;51.368;12.364;2023-07-16T14:00:41;5.60;;;2.60;;
15258;SDS011;34462;51.368;12.364;2023-07-16T14:03:09;3.10;;;2.20;;
15258;SDS011;34462;51.368;12.364;2023-07-16T14:05:38;4.65;;;2.70;;
15258;SDS011;34462;51.368;12.364;2023-07-16T14:08:06;5.00;;;2.50;;
15258;SDS011;34462;51.368;12.364;2023-07-16T14:10:36;3.78;;;2.53;;
15258;SDS011;34462;51.368;12.364;2023-07-16T14:13:04;6.18;;;2.50;;
15258;SDS011;34462;51.368;12.364;2023-07-16T14:15:33;4.00;;;2.30;;
15258;SDS011;34462;51.368;12.364;2023-07-16T14:18:02;3.00;;;2.50;;
15258;SDS011;34462;51.368;12.364;2023-07-16T14:20:31;5.05;;;2.58;;
15258;SDS011;34462;51.368;12.364;2023-07-16T14:22:59;4.13;;;2.28;;
15258;SDS011;34462;51.368;12.364;2023-07-16T14:25:29;2.70;;;2.38;;
15258;SDS011;34462;51.368;12.364;2023-07-16T14:27:59;3.88;;;2.53;;
15258;SDS011;34462;51.368;12.364;2023-07-16T14:30:28;3.83;;;2.45;;
15258;SDS011;34462;51.368;12.364;2023-07-16T14:32:56;4.20;;;2.42;;
15258;SDS011;34462;51.368;12.364;2023-07-16T14:35:25;3.28;;;2.78;;
15258;SDS011;34462;51.368;12.364;2023-07-16T14:38:02;4.72;;;2.50;;
15258;SDS011;34462;51.368;12.364;2023-07-16T14:40:31;4.20;;;2.60;;
15258;SDS011;34462;51.368;12.364;2023-07-16T14:43:01;3.30;;;2.42;;
15258;SDS011;34462;51.368;12.364;2023-07-16T14:45:31;5.05;;;4.00;;
15258;SDS011;34462;51.368;12.364;2023-07-16T14:47:59;6.35;;;3.80;;